Aeroporto :
LOGIN :

Iscrizione | Disclaimer

   EN    FR    IT 

 










Sommario :    VFR   VFR Marginale   IFR   IFR Intensivo   IFR Molto Intensivo
Visibilità : 
Base nubi : 
>= 8 km
>= 3000ft
5 / 8 km
1000 / 3000 ft
1500m / 5 km
500 / 1000 ft
800 / 1500m
200 / 500 ft
< 800m
< 200 ft
Simboli :   Temporali  Nebbia  Neve Forte  Precipitazioni Forti  Vento > 20 kt
SIGMETs :   Varie  Temporali  Ghiacco  Turbolenza  Onda orograficha  Ceneri Vulcaniche






- Altitudine del aeroporto : 935 ft


EBFS - Florennes

ULTIMO METAR :
  • 201955Z AUTO 08007KT 9999 BKN210/// 00/M02 Q1011 BLU

METARs OBSOLETI :
  • 201925Z AUTO 08007KT 9999 BKN210/// 00/M02 Q1012 BLU
  • 201855Z AUTO 08006KT 9999 FEW150/// BKN220/// 00/M02 Q1012 BLU
  • 201825Z AUTO 08006KT 9999 BKN210/// 00/M01 Q1012 BLU
  • 201755Z AUTO 08006KT 9999 BKN210/// 01/M02 Q1012 BLU
  • 201725Z AUTO 08004KT 9999 BKN210/// 00/M02 Q1012 BLU
  • 201655Z AUTO 09005KT 9999 BKN220/// 01/M01 Q1012 BLU

TAF TAF EBFS
Valido dal 20 a 19 ore il 21 a 07 ore UTC


201541Z 2019/2107 12008KT 9999 FEW210
BECMG 2020/2021 5000 BR FEW003
BECMG 2021/2022 4000 BR FEW003
TEMPO 2022/2103 2000 BR FEW002
BECMG 2103/2104 1500 BR FEW001
PROB40
TEMPO 2104/2107 VRB03KT 0500 FZFG SCT001 SCT002



MetMap, La meteo Aeronautica in un colpo d'occhio ! - Copyright ORBIFLY Dicembre 2007 - Disclaimer

ORBIFLY MET'MAP TEAM :

Programmazione e sviluppo : Alexandra Zaïnal
Concezione e sviluppo : Baudouin d'Aumeries
Co-Programmazione e sviluppo : Marc-Olivier Méhu
Supporto tecnico e logistico : Manuel Goepfert
Aiuto per la traduzione : Arnaldo La Scala

Contatto : metmap@orbifly.com




FONTI E CREDITI :

   NOAA